Lincoln City, OR (97367)

1:58 PM PDT on September 01, 2015 (GMT -0700)
APRSWXNET | | Change Station
CLOSE
Current Station
Personal Weather Station
Location: Neotsu, OR
Elevation: 187 ft
Nearby Weather Stations

Elev 187 ft 44.98 °N, 124.01 °W | Updated 19 minutes ago

Mostly Cloudy
Mostly Cloudy
65 °F
Feels Like 65 °F
N
0
Wind Variable Wind from North
Gusts 0.0 mph

Today
High -- | Low -- °F
--% Chance of Precip.
Yesterday
High -- | Low -- °F
Precip. -- in
6:37 AM 7:53 PM
Waning Gibbous, 86% visible
Pressure 29.95 in
Visibility 7.0 miles
Clouds Scattered Clouds 3600 ft
Scattered Clouds 4200 ft
Scattered Clouds 7000 ft
Dew Point 59 °F
Humidity 82%
Rainfall in
Snow Depth Not available.
UV 7 out of 12
Pollen 2.60 out of 12
Air Quality Not available.
Flu Activity Not available.
METAR KONP 012035Z AUTO 21011KT 7SM SCT036 SCT042 SCT070 18/15 A2995 RMK AO2
Pressure 29.95 in
Visibility 7.0 miles
Clouds Scattered Clouds 3600 ft
Scattered Clouds 4200 ft
Scattered Clouds 7000 ft
Dew Point 59 °F
Humidity 82%
Rainfall in
Snow Depth Not available.
UV 7 out of 12
Pollen 2.60 out of 12
Air Quality Not available.
Flu Activity Not available.
METAR KONP 012035Z AUTO 21011KT 7SM SCT036 SCT042 SCT070 18/15 A2995 RMK AO2

10-Day Weather Forecast

×

Almanac

Astronomy

Sep. 01, 2015 Rise Set
Actual Time
Civil Twilight
Nautical Twilight
Astronomical Twilight
Moon
Length of Visible Light
Length of Day
Tomorrow will be .
, % of the Moon is Illuminated

Today's Extremes

State Highs State Lows

Community

WunderPhotos

Upload Photos

1,851,608 photos uploaded!

WunderBlogs® & News

Nearby

Air Quality

  Air Quality AQ Index Pollutant
Not available.

Snow Depth

Station Depth Elevation

Earthquake Activity

City Distance Mag. Time & Date
Minimum magnitude displayed is 2.5.

Coastal Water Temperatures

Place Temperature

Stations

Nearby Weather Stations

Station Location Temp. Windchill Dew Point Humidity Wind Precip. Elev Updated Type